createdAt,value
2019-05-23T00:00:30.435Z,0.00
2019-05-23T00:01:30.404Z,0.00
2019-05-23T00:02:30.375Z,0.00
2019-05-23T00:03:30.345Z,0.00
2019-05-23T00:04:30.316Z,0.00
2019-05-23T00:05:30.286Z,0.00
2019-05-23T00:06:30.256Z,0.00
2019-05-23T00:07:30.228Z,0.00
2019-05-23T00:08:30.199Z,0.00
2019-05-23T00:09:30.173Z,0.00
2019-05-23T00:10:30.138Z,0.00
2019-05-23T00:11:30.109Z,0.00
2019-05-23T00:12:30.079Z,0.00
2019-05-23T00:13:30.049Z,0.00
2019-05-23T00:14:30.021Z,0.00
2019-05-23T00:15:29.992Z,0.00
2019-05-23T00:16:29.962Z,0.00
2019-05-23T00:17:29.932Z,0.00
2019-05-23T00:18:29.901Z,0.00
2019-05-23T00:19:29.888Z,0.00
2019-05-23T00:20:29.842Z,0.00
2019-05-23T00:21:29.815Z,0.00
2019-05-23T00:22:29.785Z,0.00
2019-05-23T00:23:29.755Z,0.00
2019-05-23T00:24:29.725Z,0.00
2019-05-23T00:25:29.711Z,0.00
2019-05-23T00:26:29.665Z,0.00
2019-05-23T00:27:29.637Z,0.00
2019-05-23T00:28:29.607Z,0.00
2019-05-23T00:29:29.577Z,0.00
2019-05-23T00:30:29.548Z,0.00
2019-05-23T00:31:29.521Z,0.00
2019-05-23T00:32:29.488Z,0.00
2019-05-23T00:33:29.458Z,0.00
2019-05-23T00:34:29.449Z,0.00
2019-05-23T00:35:29.398Z,0.00
2019-05-23T00:36:29.369Z,0.00
2019-05-23T00:37:29.342Z,0.00
2019-05-23T00:38:29.309Z,0.00
2019-05-23T00:39:29.282Z,0.00
2019-05-23T00:40:29.250Z,0.00
2019-05-23T00:41:29.221Z,0.00
2019-05-23T00:42:29.189Z,0.00
2019-05-23T00:43:29.161Z,0.00
2019-05-23T00:44:29.132Z,0.00
2019-05-23T00:45:29.113Z,0.00
2019-05-23T00:46:29.080Z,0.00
2019-05-23T00:47:29.072Z,0.00
2019-05-23T00:48:29.018Z,0.00
2019-05-23T00:49:29.017Z,0.00
2019-05-23T00:50:28.951Z,0.00
2019-05-23T00:51:28.923Z,0.00
2019-05-23T00:52:28.897Z,0.00
2019-05-23T00:53:28.863Z,0.00
2019-05-23T00:54:28.833Z,0.00
2019-05-23T00:55:29.013Z,0.00
2019-05-23T00:56:28.772Z,0.00
2019-05-23T00:57:28.743Z,0.00
2019-05-23T00:58:28.713Z,0.00
2019-05-23T00:59:28.684Z,0.00
2019-05-23T01:00:28.656Z,0.00
2019-05-23T01:01:28.624Z,0.00
2019-05-23T01:02:28.595Z,0.00
2019-05-23T01:03:28.580Z,0.00
2019-05-23T01:04:28.533Z,0.00
2019-05-23T01:05:28.505Z,0.00
2019-05-23T01:06:28.478Z,0.00
2019-05-23T01:07:28.447Z,0.00
2019-05-23T01:08:28.416Z,0.00
2019-05-23T01:09:28.388Z,0.00
2019-05-23T01:10:28.354Z,0.00
2019-05-23T01:11:28.324Z,0.00
2019-05-23T01:12:28.299Z,0.00
2019-05-23T01:13:28.265Z,0.00
2019-05-23T01:14:28.242Z,0.00
2019-05-23T01:15:28.204Z,0.00
2019-05-23T01:16:28.173Z,0.00
2019-05-23T01:17:28.144Z,0.00
2019-05-23T01:18:28.112Z,0.00
2019-05-23T01:19:28.083Z,0.00
2019-05-23T01:20:28.053Z,0.00
2019-05-23T01:21:28.027Z,0.00
2019-05-23T01:22:27.992Z,0.00
2019-05-23T01:23:27.967Z,0.00
2019-05-23T01:24:27.933Z,0.00
2019-05-23T01:25:27.903Z,0.00
2019-05-23T01:26:27.873Z,0.00
2019-05-23T01:27:27.910Z,0.00
2019-05-23T01:28:27.814Z,0.00
2019-05-23T01:29:37.129Z,0.00
2019-05-23T01:30:27.750Z,0.00
2019-05-23T01:31:27.742Z,0.00
2019-05-23T01:32:27.710Z,0.00
2019-05-23T01:33:27.663Z,0.00
2019-05-23T01:34:27.632Z,0.00
2019-05-23T01:35:27.601Z,0.00
2019-05-23T01:36:27.571Z,0.00
2019-05-23T01:37:27.539Z,0.00
2019-05-23T01:38:27.511Z,0.00
2019-05-23T01:39:27.479Z,0.00
2019-05-23T01:40:27.451Z,0.00
2019-05-23T01:41:27.426Z,0.00
2019-05-23T01:42:27.391Z,0.00
2019-05-23T01:43:27.359Z,0.00
2019-05-23T01:44:27.329Z,0.00
2019-05-23T01:45:27.298Z,0.00
2019-05-23T01:46:27.269Z,0.00
2019-05-23T01:47:27.237Z,0.00
2019-05-23T01:48:27.207Z,0.00
2019-05-23T01:49:27.181Z,0.00
2019-05-23T01:50:27.154Z,0.00
2019-05-23T01:51:27.117Z,0.00
2019-05-23T01:52:27.092Z,0.00
2019-05-23T01:53:27.056Z,0.00
2019-05-23T01:54:27.024Z,0.00
2019-05-23T01:55:26.995Z,0.00
2019-05-23T01:56:26.963Z,0.00
2019-05-23T01:57:26.934Z,0.00
2019-05-23T01:58:26.902Z,0.00
2019-05-23T01:59:26.871Z,0.00
2019-05-23T02:00:26.843Z,0.00
2019-05-23T02:01:26.811Z,0.00
2019-05-23T02:02:26.782Z,0.00
2019-05-23T02:03:26.749Z,0.00
2019-05-23T02:04:26.733Z,0.00
2019-05-23T02:05:26.690Z,0.00
2019-05-23T02:06:26.662Z,0.00
2019-05-23T02:07:26.639Z,0.00
2019-05-23T02:08:26.600Z,0.00
2019-05-23T02:09:26.572Z,0.00
2019-05-23T02:10:26.537Z,0.00
2019-05-23T02:11:26.506Z,0.00
2019-05-23T02:12:26.478Z,0.00
2019-05-23T02:13:26.446Z,0.00
2019-05-23T02:14:26.415Z,0.00
2019-05-23T02:15:26.383Z,0.00
2019-05-23T02:16:26.354Z,0.00
2019-05-23T02:17:26.327Z,4.00
2019-05-23T02:18:26.292Z,4.00
2019-05-23T02:19:26.261Z,4.00
2019-05-23T02:20:26.233Z,0.00
2019-05-23T02:21:26.203Z,4.00
2019-05-23T02:22:26.172Z,4.00
2019-05-23T02:23:26.142Z,4.00
2019-05-23T02:24:26.119Z,8.00
2019-05-23T02:25:26.098Z,4.00
2019-05-23T02:26:26.048Z,8.00
2019-05-23T02:27:26.019Z,8.00
2019-05-23T02:28:25.994Z,8.00
2019-05-23T02:29:26.101Z,8.00
2019-05-23T02:30:35.750Z,12.00
2019-05-23T02:31:25.894Z,12.00
2019-05-23T02:32:25.865Z,12.00
2019-05-23T02:33:25.832Z,12.00
2019-05-23T02:34:25.803Z,16.00
2019-05-23T02:35:25.772Z,20.00
2019-05-23T02:36:25.742Z,20.00
2019-05-23T02:37:25.712Z,24.00
2019-05-23T02:38:25.683Z,28.00
2019-05-23T02:39:25.650Z,32.00
2019-05-23T02:40:25.619Z,32.00
2019-05-23T02:41:25.604Z,40.00
2019-05-23T02:42:25.555Z,40.00
2019-05-23T02:43:25.527Z,44.00
2019-05-23T02:44:25.538Z,52.00
2019-05-23T02:45:25.465Z,60.00
2019-05-23T02:46:25.451Z,68.00
2019-05-23T02:47:25.403Z,76.00
2019-05-23T02:48:25.376Z,88.00
2019-05-23T02:49:25.423Z,100.00
2019-05-23T02:50:25.403Z,112.00
2019-05-23T02:51:25.280Z,124.00
2019-05-23T02:52:25.247Z,140.00
2019-05-23T02:53:25.216Z,160.00
2019-05-23T02:54:25.187Z,180.00
2019-05-23T02:55:25.153Z,196.00
2019-05-23T02:56:25.122Z,212.00
2019-05-23T02:57:25.092Z,224.00
2019-05-23T02:58:25.062Z,244.00
2019-05-23T02:59:25.031Z,272.00
2019-05-23T03:00:24.999Z,304.00
2019-05-23T03:01:25.042Z,340.00
2019-05-23T03:02:24.938Z,368.00
2019-05-23T03:03:24.906Z,396.00
2019-05-23T03:04:24.881Z,432.00
2019-05-23T03:05:24.844Z,460.00
2019-05-23T03:06:24.814Z,492.00
2019-05-23T03:07:24.782Z,520.00
2019-05-23T03:08:24.753Z,552.00
2019-05-23T03:09:24.722Z,580.00
2019-05-23T03:10:24.700Z,616.00
2019-05-23T03:11:24.659Z,652.00
2019-05-23T03:12:25.448Z,696.00
2019-05-23T03:13:24.596Z,748.00
2019-05-23T03:14:24.564Z,796.00
2019-05-23T03:15:24.536Z,852.00
2019-05-23T03:16:24.517Z,908.00
2019-05-23T03:17:24.476Z,960.00
2019-05-23T03:18:24.439Z,1020.00
2019-05-23T03:19:24.413Z,1080.00
2019-05-23T03:20:24.378Z,1144.00
2019-05-23T03:21:24.357Z,1208.00
2019-05-23T03:22:24.321Z,1272.00
2019-05-23T03:23:24.286Z,1336.00
2019-05-23T03:24:24.268Z,1408.00
2019-05-23T03:25:24.226Z,1472.00
2019-05-23T03:26:24.194Z,1540.00
2019-05-23T03:27:24.167Z,1608.00
2019-05-23T03:28:24.130Z,1676.00
2019-05-23T03:29:24.100Z,1744.00
2019-05-23T03:30:24.070Z,1812.00
2019-05-23T03:31:30.763Z,1876.00
2019-05-23T03:32:24.009Z,1948.00
2019-05-23T03:33:23.978Z,2008.00
2019-05-23T03:34:23.949Z,2080.00
2019-05-23T03:35:23.915Z,2148.00
2019-05-23T03:36:23.884Z,2204.00
2019-05-23T03:37:23.857Z,2268.00
2019-05-23T03:38:23.824Z,2336.00
2019-05-23T03:39:23.797Z,2420.00
2019-05-23T03:40:23.766Z,2468.00
2019-05-23T03:41:23.730Z,2508.00
2019-05-23T03:42:23.702Z,2560.00
2019-05-23T03:43:23.668Z,2616.00
2019-05-23T03:44:23.640Z,2700.00
2019-05-23T03:45:23.609Z,2792.00
2019-05-23T03:46:23.575Z,2860.00
2019-05-23T03:47:23.544Z,2936.00
2019-05-23T03:48:23.515Z,2972.00
2019-05-23T03:49:23.483Z,3028.00
2019-05-23T03:50:23.451Z,3096.00
2019-05-23T03:51:23.426Z,3148.00
2019-05-23T03:52:23.389Z,3232.00
2019-05-23T03:53:23.366Z,3308.00
2019-05-23T03:54:23.328Z,3408.00
2019-05-23T03:55:23.298Z,3484.00
2019-05-23T03:56:23.268Z,3588.00
2019-05-23T03:57:25.717Z,3672.00
2019-05-23T03:58:23.210Z,3784.00
2019-05-23T03:59:23.176Z,3880.00
2019-05-23T04:00:23.153Z,3948.00
2019-05-23T04:01:23.116Z,4040.00
2019-05-23T04:02:23.086Z,4156.00
2019-05-23T04:03:23.053Z,4264.00
2019-05-23T04:04:23.023Z,4336.00
2019-05-23T04:05:22.993Z,4424.00
2019-05-23T04:06:22.963Z,4512.00
2019-05-23T04:07:22.976Z,4648.00
2019-05-23T04:08:22.904Z,4700.00
2019-05-23T04:09:22.871Z,4728.00
2019-05-23T04:10:22.843Z,4872.00
2019-05-23T04:11:22.810Z,4876.00
2019-05-23T04:12:22.783Z,4908.00
2019-05-23T04:13:22.752Z,4952.00
2019-05-23T04:14:22.720Z,4976.00
2019-05-23T04:15:22.695Z,4996.00
2019-05-23T04:16:22.659Z,5104.00
2019-05-23T04:17:22.631Z,5316.00
2019-05-23T04:18:22.601Z,5472.00
2019-05-23T04:19:22.575Z,5596.00
2019-05-23T04:20:22.544Z,5716.00
2019-05-23T04:21:22.511Z,5796.00
2019-05-23T04:22:22.484Z,5896.00
2019-05-23T04:23:22.531Z,6036.00
2019-05-23T04:24:22.418Z,6156.00
2019-05-23T04:25:22.389Z,6320.00
2019-05-23T04:26:22.360Z,6492.00
2019-05-23T04:27:22.333Z,6732.00
2019-05-23T04:28:22.299Z,7008.00
2019-05-23T04:29:22.275Z,7268.00
2019-05-23T04:30:22.241Z,7296.00
2019-05-23T04:31:22.244Z,7372.00
2019-05-23T04:32:22.181Z,7452.00
2019-05-23T04:33:22.150Z,7588.00
2019-05-23T04:34:22.120Z,7808.00
2019-05-23T04:35:22.101Z,8036.00
2019-05-23T04:36:22.066Z,7984.00
2019-05-23T04:37:22.045Z,8100.00
2019-05-23T04:38:22.014Z,8152.00
2019-05-23T04:39:21.978Z,8256.00
2019-05-23T04:40:21.952Z,8360.00
2019-05-23T04:41:21.917Z,8448.00
2019-05-23T04:42:21.888Z,8608.00
2019-05-23T04:43:21.859Z,8684.00
2019-05-23T04:44:21.830Z,8844.00
2019-05-23T04:45:21.799Z,9024.00
2019-05-23T04:46:21.777Z,9020.00
2019-05-23T04:47:21.742Z,9012.00
2019-05-23T04:48:21.713Z,9028.00
2019-05-23T04:49:21.695Z,9168.00
2019-05-23T04:50:21.656Z,9528.00
2019-05-23T04:51:21.627Z,9616.00
2019-05-23T04:52:21.597Z,9640.00
2019-05-23T04:53:21.570Z,9852.00
2019-05-23T04:54:21.540Z,9976.00
2019-05-23T04:55:21.514Z,9512.00
2019-05-23T04:56:21.485Z,9452.00
2019-05-23T04:57:21.459Z,9980.00
2019-05-23T04:58:21.428Z,10132.00
2019-05-23T04:59:21.399Z,10336.00
2019-05-23T05:00:21.370Z,10488.00
2019-05-23T05:01:21.346Z,10620.00
2019-05-23T05:02:26.464Z,10740.00
2019-05-23T05:03:21.307Z,10920.00
2019-05-23T05:04:21.261Z,11016.00
2019-05-23T05:05:21.233Z,11092.00
2019-05-23T05:06:21.207Z,11340.00
2019-05-23T05:07:21.182Z,11592.00
2019-05-23T05:08:21.151Z,11804.00
2019-05-23T05:09:21.124Z,12080.00
2019-05-23T05:10:21.093Z,12156.00
2019-05-23T05:11:21.069Z,12196.00
2019-05-23T05:12:21.042Z,12356.00
2019-05-23T05:13:21.013Z,12336.00
2019-05-23T05:14:20.990Z,12136.00
2019-05-23T05:15:20.961Z,12312.00
2019-05-23T05:16:20.933Z,12892.00
2019-05-23T05:17:20.918Z,13344.00
2019-05-23T05:18:20.878Z,13992.00
2019-05-23T05:19:20.851Z,13100.00
2019-05-23T05:20:20.825Z,13340.00
2019-05-23T05:21:20.802Z,15868.00
2019-05-23T05:22:20.773Z,19328.00
2019-05-23T05:23:20.747Z,18368.00
2019-05-23T05:24:20.721Z,18656.00
2019-05-23T05:25:20.712Z,21152.00
2019-05-23T05:26:20.678Z,27136.00
2019-05-23T05:27:20.644Z,24064.00
2019-05-23T05:28:20.617Z,27904.00
2019-05-23T05:29:20.592Z,28768.00
2019-05-23T05:30:20.569Z,32096.00
2019-05-23T05:31:20.542Z,32736.00
2019-05-23T05:32:20.521Z,30752.00
2019-05-23T05:33:20.496Z,29248.00
2019-05-23T05:34:20.475Z,24640.00
2019-05-23T05:35:20.457Z,29824.00
2019-05-23T05:36:20.427Z,35232.00
2019-05-23T05:37:20.402Z,35808.00
2019-05-23T05:38:20.377Z,33952.00
2019-05-23T05:39:20.358Z,29504.00
2019-05-23T05:40:20.342Z,23712.00
2019-05-23T05:41:20.343Z,25312.00
2019-05-23T05:42:20.291Z,24544.00
2019-05-23T05:43:20.269Z,23104.00
2019-05-23T05:44:20.274Z,22528.00
2019-05-23T05:45:20.232Z,18720.00
2019-05-23T05:46:20.205Z,25792.00
2019-05-23T05:47:20.184Z,24416.00
2019-05-23T05:48:20.161Z,24800.00
2019-05-23T05:49:20.144Z,24352.00
2019-05-23T05:50:20.119Z,24704.00
2019-05-23T05:51:20.103Z,24480.00
2019-05-23T05:52:20.076Z,22400.00
2019-05-23T05:53:20.055Z,20224.00
2019-05-23T05:54:20.033Z,20768.00
2019-05-23T05:55:20.012Z,22688.00
2019-05-23T05:56:19.994Z,25920.00
2019-05-23T05:57:19.972Z,25760.00
2019-05-23T05:58:19.949Z,21472.00
2019-05-23T05:59:19.928Z,22016.00
2019-05-23T06:00:19.916Z,24928.00
2019-05-23T06:01:33.303Z,24960.00
2019-05-23T06:02:19.912Z,26848.00
2019-05-23T06:03:19.849Z,28544.00
2019-05-23T06:04:19.822Z,31584.00
2019-05-23T06:05:19.811Z,30432.00
2019-05-23T06:06:19.784Z,25344.00
2019-05-23T06:07:19.761Z,22976.00
2019-05-23T06:08:19.737Z,25472.00
2019-05-23T06:09:19.718Z,24704.00
2019-05-23T06:10:19.698Z,23904.00
2019-05-23T06:11:19.675Z,23776.00
2019-05-23T06:12:19.653Z,26304.00
2019-05-23T06:13:19.633Z,31776.00
2019-05-23T06:14:19.625Z,35744.00
2019-05-23T06:15:19.591Z,37376.00
2019-05-23T06:16:19.574Z,37440.00
2019-05-23T06:17:19.553Z,37920.00
2019-05-23T06:18:19.526Z,35072.00
2019-05-23T06:19:19.508Z,35520.00
2019-05-23T06:20:19.487Z,36832.00
2019-05-23T06:21:19.467Z,37056.00
2019-05-23T06:22:19.446Z,35936.00
2019-05-23T06:23:19.427Z,34560.00
2019-05-23T06:24:37.802Z,38816.00
2019-05-23T06:25:19.389Z,36608.00
2019-05-23T06:26:19.370Z,38496.00
2019-05-23T06:27:19.347Z,37760.00
2019-05-23T06:28:19.327Z,38528.00
2019-05-23T06:29:19.316Z,36608.00
2019-05-23T06:30:19.285Z,39680.00
2019-05-23T06:31:19.269Z,38240.00
2019-05-23T06:32:19.247Z,38368.00
2019-05-23T06:33:23.990Z,40736.00
2019-05-23T06:34:19.218Z,45632.00
2019-05-23T06:35:19.190Z,48128.00
2019-05-23T06:36:19.169Z,25792.00
2019-05-23T06:37:19.152Z,47008.00
2019-05-23T06:38:19.132Z,48160.00
2019-05-23T06:39:19.115Z,45696.00
2019-05-23T06:40:19.163Z,44256.00
2019-05-23T06:41:19.076Z,44800.00
2019-05-23T06:42:19.064Z,45056.00
2019-05-23T06:43:19.039Z,47328.00
2019-05-23T06:44:19.059Z,46048.00
2019-05-23T06:45:19.008Z,47136.00
2019-05-23T06:46:18.991Z,47168.00
2019-05-23T06:47:18.967Z,24608.00
2019-05-23T06:48:18.952Z,46880.00
2019-05-23T06:49:18.931Z,44352.00
2019-05-23T06:50:18.911Z,44512.00
2019-05-23T06:51:18.895Z,40064.00
2019-05-23T06:52:18.903Z,47168.00
2019-05-23T06:53:18.864Z,27456.00
2019-05-23T06:54:18.839Z,46112.00
2019-05-23T06:55:18.823Z,47264.00
2019-05-23T06:56:18.811Z,46144.00
2019-05-23T06:57:18.785Z,36256.00
2019-05-23T06:58:18.815Z,25408.00
2019-05-23T06:59:18.751Z,41408.00
2019-05-23T07:00:18.734Z,31872.00
2019-05-23T07:01:18.713Z,40992.00
2019-05-23T07:02:18.697Z,40480.00
2019-05-23T07:03:18.681Z,60864.00
2019-05-23T07:04:18.656Z,41024.00
2019-05-23T07:05:18.679Z,26272.00
2019-05-23T07:06:18.621Z,21440.00
2019-05-23T07:07:18.601Z,21888.00
2019-05-23T07:08:18.583Z,25824.00
2019-05-23T07:09:18.568Z,32640.00
2019-05-23T07:10:18.571Z,38816.00
2019-05-23T07:11:18.537Z,53280.00
2019-05-23T07:12:18.517Z,37024.00
2019-05-23T07:13:18.504Z,23264.00
2019-05-23T07:14:18.537Z,47648.00
2019-05-23T07:15:18.447Z,55840.00
2019-05-23T07:16:18.431Z,58240.00
2019-05-23T07:17:18.411Z,59104.00
2019-05-23T07:18:18.392Z,37152.00
2019-05-23T07:19:18.371Z,51648.00
2019-05-23T07:20:18.361Z,55360.00
2019-05-23T07:21:18.332Z,54688.00
2019-05-23T07:22:19.557Z,48992.00
2019-05-23T07:23:18.450Z,56064.00
2019-05-23T07:24:18.272Z,58976.00
2019-05-23T07:25:18.254Z,60416.00
2019-05-23T07:26:18.236Z,66656.00
2019-05-23T07:27:18.217Z,69440.00
2019-05-23T07:28:18.196Z,69344.00
2019-05-23T07:29:18.179Z,68384.00
2019-05-23T07:30:18.159Z,68768.00
2019-05-23T07:31:18.140Z,64992.00
2019-05-23T07:32:18.133Z,61184.00
2019-05-23T07:33:18.113Z,60416.00
2019-05-23T07:34:18.089Z,62816.00
2019-05-23T07:35:18.080Z,68064.00
2019-05-23T07:36:18.053Z,66432.00
2019-05-23T07:37:18.038Z,64800.00
2019-05-23T07:38:18.030Z,64224.00
2019-05-23T07:39:18.042Z,60544.00
2019-05-23T07:40:17.993Z,62752.00
2019-05-23T07:41:17.971Z,62400.00
2019-05-23T07:42:17.951Z,64064.00
2019-05-23T07:43:17.934Z,63296.00
2019-05-23T07:44:18.015Z,66016.00
2019-05-23T07:45:17.902Z,71072.00
2019-05-23T07:46:17.884Z,70272.00
2019-05-23T07:47:17.869Z,70592.00
2019-05-23T07:48:17.858Z,72320.00
2019-05-23T07:49:17.835Z,70080.00
2019-05-23T07:50:17.817Z,70496.00
2019-05-23T07:51:17.816Z,63296.00
2019-05-23T07:52:17.789Z,57408.00
2019-05-23T07:53:17.779Z,61664.00
2019-05-23T07:54:17.751Z,61312.00
2019-05-23T07:55:17.736Z,67264.00
2019-05-23T07:56:17.721Z,75904.00
2019-05-23T07:57:17.702Z,80512.00
2019-05-23T07:58:17.689Z,84352.00
2019-05-23T07:59:17.669Z,82688.00
2019-05-23T08:00:17.651Z,80448.00
2019-05-23T08:01:17.635Z,76992.00
2019-05-23T08:02:17.619Z,72544.00
2019-05-23T08:03:17.603Z,71200.00
2019-05-23T08:04:22.073Z,73888.00
2019-05-23T08:05:17.569Z,75744.00
2019-05-23T08:06:17.557Z,80256.00
2019-05-23T08:07:17.542Z,83488.00
2019-05-23T08:08:17.538Z,87488.00
2019-05-23T08:09:17.505Z,83904.00
2019-05-23T08:10:32.547Z,77952.00
2019-05-23T08:11:17.473Z,76192.00
2019-05-23T08:12:17.458Z,78432.00
2019-05-23T08:13:17.446Z,81888.00
2019-05-23T08:14:17.428Z,85056.00
2019-05-23T08:15:17.413Z,86592.00
2019-05-23T08:16:17.395Z,85952.00
2019-05-23T08:17:17.380Z,86944.00
2019-05-23T08:18:17.364Z,86208.00
2019-05-23T08:19:19.622Z,83776.00
2019-05-23T08:20:17.331Z,84896.00
2019-05-23T08:21:17.317Z,86720.00
2019-05-23T08:22:17.302Z,89120.00
2019-05-23T08:23:17.287Z,93280.00
2019-05-23T08:24:17.271Z,92704.00
2019-05-23T08:25:17.257Z,91968.00
2019-05-23T08:26:17.239Z,88704.00
2019-05-23T08:27:17.224Z,85728.00
2019-05-23T08:28:17.208Z,84480.00
2019-05-23T08:29:26.443Z,85440.00
2019-05-23T08:30:17.177Z,86368.00
2019-05-23T08:31:17.162Z,84128.00
2019-05-23T08:32:17.145Z,84576.00
2019-05-23T08:33:17.200Z,81664.00
2019-05-23T08:34:17.131Z,75200.00
2019-05-23T08:35:18.161Z,72032.00
2019-05-23T08:36:17.086Z,72576.00
2019-05-23T08:37:17.074Z,78016.00
2019-05-23T08:38:17.056Z,81312.00
2019-05-23T08:39:17.104Z,84320.00
2019-05-23T08:40:17.038Z,85664.00
2019-05-23T08:41:17.010Z,82496.00
2019-05-23T08:42:16.994Z,81952.00
2019-05-23T08:43:16.979Z,84576.00
2019-05-23T08:44:16.963Z,88096.00
2019-05-23T08:45:16.955Z,92096.00
2019-05-23T08:46:16.932Z,94656.00
2019-05-23T08:47:16.918Z,95424.00
2019-05-23T08:48:16.901Z,93760.00
2019-05-23T08:49:16.886Z,90976.00
2019-05-23T08:50:16.870Z,90112.00
2019-05-23T08:51:16.856Z,88960.00
2019-05-23T08:52:16.844Z,88352.00
2019-05-23T08:53:16.823Z,88544.00
2019-05-23T08:54:16.807Z,89088.00
2019-05-23T08:55:16.843Z,89152.00
2019-05-23T08:56:19.575Z,88000.00
2019-05-23T08:57:16.768Z,86784.00
2019-05-23T08:58:17.371Z,87104.00
2019-05-23T08:59:16.734Z,86688.00
2019-05-23T09:00:16.716Z,86144.00
2019-05-23T09:01:16.735Z,87936.00
2019-05-23T09:02:16.688Z,86496.00
2019-05-23T09:03:16.672Z,86624.00
2019-05-23T09:04:16.660Z,84672.00
2019-05-23T09:05:16.646Z,81728.00
2019-05-23T09:06:16.626Z,80512.00
2019-05-23T09:07:16.642Z,84512.00
2019-05-23T09:08:17.354Z,86528.00
2019-05-23T09:09:29.322Z,89024.00
2019-05-23T09:10:16.565Z,90624.00
2019-05-23T09:11:16.554Z,88576.00
2019-05-23T09:12:16.578Z,87520.00
2019-05-23T09:13:16.523Z,85600.00
2019-05-23T09:14:16.507Z,83136.00
2019-05-23T09:15:16.493Z,84256.00
2019-05-23T09:16:16.477Z,84384.00
2019-05-23T09:17:16.462Z,83104.00
2019-05-23T09:18:16.448Z,80736.00
2019-05-23T09:19:16.472Z,73856.00
2019-05-23T09:20:16.417Z,70592.00
2019-05-23T09:21:16.403Z,76864.00
2019-05-23T09:22:16.386Z,81984.00
2019-05-23T09:23:16.373Z,87200.00
2019-05-23T09:24:16.361Z,89024.00
2019-05-23T09:25:16.342Z,87712.00
2019-05-23T09:26:16.328Z,88896.00
2019-05-23T09:27:16.316Z,86752.00
2019-05-23T09:28:16.299Z,86944.00
2019-05-23T09:29:16.284Z,82080.00
2019-05-23T09:30:16.267Z,91584.00
2019-05-23T09:31:16.256Z,93088.00
2019-05-23T09:32:16.237Z,94976.00
2019-05-23T09:33:16.224Z,95392.00
2019-05-23T09:34:16.216Z,96960.00
2019-05-23T09:35:20.768Z,88352.00
2019-05-23T09:36:16.230Z,93536.00
2019-05-23T09:37:16.165Z,92704.00
2019-05-23T09:38:16.155Z,93696.00
2019-05-23T09:39:16.144Z,95936.00
2019-05-23T09:40:16.129Z,96608.00
2019-05-23T09:41:16.125Z,97888.00
2019-05-23T09:42:16.092Z,96192.00
2019-05-23T09:43:16.157Z,94752.00
2019-05-23T09:44:16.063Z,88608.00
2019-05-23T09:45:16.049Z,84864.00
2019-05-23T09:46:16.035Z,85888.00
2019-05-23T09:47:16.024Z,85536.00
2019-05-23T09:48:16.005Z,86784.00
2019-05-23T09:49:15.993Z,88672.00
2019-05-23T09:50:15.976Z,89152.00
2019-05-23T09:51:16.026Z,87264.00
2019-05-23T09:52:16.145Z,86656.00
2019-05-23T09:53:15.936Z,90016.00
2019-05-23T09:54:15.918Z,87648.00
2019-05-23T09:55:15.902Z,86304.00
2019-05-23T09:56:15.894Z,85408.00
2019-05-23T09:57:15.875Z,86976.00
2019-05-23T09:58:15.862Z,88736.00
2019-05-23T09:59:15.849Z,91040.00
2019-05-23T10:00:15.838Z,92480.00
2019-05-23T10:01:15.817Z,91328.00
2019-05-23T10:02:15.801Z,91968.00
2019-05-23T10:03:15.786Z,92032.00
2019-05-23T10:04:15.773Z,89856.00
2019-05-23T10:05:15.756Z,94496.00
2019-05-23T10:06:15.750Z,93760.00
2019-05-23T10:07:15.726Z,93312.00
2019-05-23T10:08:15.719Z,94432.00
2019-05-23T10:09:15.697Z,97024.00
2019-05-23T10:10:15.691Z,99232.00
2019-05-23T10:11:15.672Z,100672.00
2019-05-23T10:12:15.655Z,100672.00
2019-05-23T10:13:15.639Z,101408.00
2019-05-23T10:14:15.622Z,100704.00
2019-05-23T10:15:15.615Z,100288.00
2019-05-23T10:16:15.602Z,99072.00
2019-05-23T10:17:15.580Z,97344.00
2019-05-23T10:18:15.566Z,94464.00
2019-05-23T10:19:15.549Z,96160.00
2019-05-23T10:20:15.543Z,93248.00
2019-05-23T10:21:15.519Z,95488.00
2019-05-23T10:22:15.507Z,94880.00
2019-05-23T10:23:15.489Z,97056.00
2019-05-23T10:24:15.475Z,101280.00
2019-05-23T10:25:15.461Z,99360.00
2019-05-23T10:26:15.445Z,101536.00
2019-05-23T10:27:15.429Z,93184.00
2019-05-23T10:28:15.416Z,97728.00
2019-05-23T10:29:15.403Z,96448.00
2019-05-23T10:30:15.383Z,95840.00
2019-05-23T10:31:15.370Z,95040.00
2019-05-23T10:32:15.356Z,94432.00
2019-05-23T10:33:15.344Z,92928.00
2019-05-23T10:34:15.369Z,90624.00
2019-05-23T10:35:15.311Z,90560.00
2019-05-23T10:36:15.296Z,94784.00
2019-05-23T10:37:15.280Z,98432.00
2019-05-23T10:38:15.266Z,98144.00
2019-05-23T10:39:15.252Z,98848.00
2019-05-23T10:40:15.236Z,97792.00
2019-05-23T10:41:15.222Z,93376.00
2019-05-23T10:42:15.205Z,92672.00
2019-05-23T10:43:15.192Z,91200.00
2019-05-23T10:44:15.177Z,33184.00
2019-05-23T10:45:15.165Z,47648.00
2019-05-23T10:46:15.148Z,86688.00
2019-05-23T10:47:15.136Z,84960.00
2019-05-23T10:48:15.120Z,82912.00
2019-05-23T10:49:15.106Z,81952.00
2019-05-23T10:50:15.091Z,82592.00
2019-05-23T10:51:15.076Z,83520.00
2019-05-23T10:52:15.063Z,86176.00
2019-05-23T10:53:15.049Z,86080.00
2019-05-23T10:54:15.032Z,83680.00
2019-05-23T10:55:15.017Z,23968.00
2019-05-23T10:56:20.042Z,85440.00
2019-05-23T10:57:14.988Z,79392.00
2019-05-23T10:58:14.978Z,78368.00
2019-05-23T10:59:14.967Z,79520.00
2019-05-23T11:00:14.946Z,84512.00
2019-05-23T11:01:14.933Z,91584.00
2019-05-23T11:02:14.916Z,96256.00
2019-05-23T11:03:14.903Z,98400.00
2019-05-23T11:04:14.954Z,93824.00
2019-05-23T11:05:14.884Z,92544.00
2019-05-23T11:06:16.784Z,86528.00
2019-05-23T11:07:14.846Z,82464.00
2019-05-23T11:08:14.835Z,84352.00
2019-05-23T11:09:14.827Z,85824.00
2019-05-23T11:10:14.798Z,88832.00
2019-05-23T11:11:15.176Z,95488.00
2019-05-23T11:12:14.770Z,96448.00
2019-05-23T11:13:14.754Z,97696.00
2019-05-23T11:14:14.749Z,94592.00
2019-05-23T11:15:14.725Z,92256.00
2019-05-23T11:16:14.712Z,89600.00
2019-05-23T11:17:14.696Z,91040.00
2019-05-23T11:18:14.685Z,92064.00
2019-05-23T11:19:14.667Z,90592.00
2019-05-23T11:20:14.656Z,91968.00
2019-05-23T11:21:14.642Z,93312.00
2019-05-23T11:22:14.623Z,90592.00
2019-05-23T11:23:14.607Z,89248.00
2019-05-23T11:24:14.641Z,88224.00
2019-05-23T11:25:14.586Z,90592.00
2019-05-23T11:26:14.569Z,91424.00
2019-05-23T11:27:14.575Z,92256.00
2019-05-23T11:28:14.544Z,93184.00
2019-05-23T11:29:14.523Z,96640.00
2019-05-23T11:30:14.508Z,93280.00
2019-05-23T11:31:14.492Z,92480.00
2019-05-23T11:32:14.538Z,86624.00
2019-05-23T11:33:14.463Z,81664.00
2019-05-23T11:34:14.446Z,84160.00
2019-05-23T11:35:14.433Z,94912.00
2019-05-23T11:36:14.419Z,92064.00
2019-05-23T11:37:14.408Z,90624.00
2019-05-23T11:38:14.389Z,91296.00
2019-05-23T11:39:14.376Z,92832.00
2019-05-23T11:40:14.405Z,98048.00
2019-05-23T11:41:14.348Z,104000.00
2019-05-23T11:42:14.335Z,104256.00
2019-05-23T11:43:14.318Z,99264.00
2019-05-23T11:44:14.304Z,94848.00
2019-05-23T11:45:14.291Z,93120.00
2019-05-23T11:46:14.274Z,91008.00
2019-05-23T11:47:14.263Z,94208.00
2019-05-23T11:48:16.171Z,98400.00
2019-05-23T11:49:14.234Z,104512.00
2019-05-23T11:50:14.220Z,105056.00
2019-05-23T11:51:14.209Z,102368.00
2019-05-23T11:52:14.543Z,98048.00
2019-05-23T11:53:14.178Z,95200.00
2019-05-23T11:54:14.166Z,99616.00
2019-05-23T11:55:14.151Z,102528.00
2019-05-23T11:56:14.133Z,107232.00
2019-05-23T11:57:14.118Z,106560.00
2019-05-23T11:58:14.104Z,103232.00
2019-05-23T11:59:14.094Z,92256.00
2019-05-23T12:00:14.076Z,86976.00
2019-05-23T12:01:20.545Z,90176.00
2019-05-23T12:02:14.045Z,94368.00
2019-05-23T12:03:14.032Z,97280.00
2019-05-23T12:04:14.018Z,98464.00
2019-05-23T12:05:14.005Z,30784.00
2019-05-23T12:06:13.989Z,29792.00
2019-05-23T12:07:13.974Z,36704.00